Ravenswood, Illinois
Current Conditions -  °F | °C
As of 2:51 PM on Sunday 21 Dec 2014 (Local Time) from KORD Reporting Station
Overcast Overcast  
Wind Chill: -3°   Ceiling: 3800
Heat Index:   Visibility: 9mi
Dew Point: -2°   Wind: 14mph
Humidity: 73%   Direction: 180°S
Pressure: 30.08"   Gusts: NA
Location:  41.9735°N, 87.7018°W
Report Text: KORD 212051Z 18012KT 9SM FEW020 OVC038 02/M02 A3008 RMK AO2 SLP192 T00221022 56021
Loading
Personal Weather Stations






























Interactive Weather Map New forecast layout! Learn more

10-Day Weather Forecast

Advertisements
Track Severe Weather on mobile